createdAt,value
2022-12-01T00:01:15.794Z,34.15
2022-12-01T00:03:43.050Z,29.90
2022-12-01T00:06:18.525Z,35.88
2022-12-01T00:09:06.553Z,33.10
2022-12-01T00:11:35.436Z,30.85
2022-12-01T00:14:02.838Z,31.70
2022-12-01T00:16:29.974Z,31.85
2022-12-01T00:18:57.278Z,31.90
2022-12-01T00:21:25.902Z,32.28
2022-12-01T00:23:57.395Z,33.50
2022-12-01T00:26:25.667Z,32.15
2022-12-01T00:28:54.681Z,28.88
2022-12-01T00:31:22.032Z,33.22
2022-12-01T00:33:49.070Z,32.78
2022-12-01T00:36:16.157Z,30.77
2022-12-01T00:38:43.559Z,33.85
2022-12-01T00:41:10.588Z,34.40
2022-12-01T00:43:39.769Z,34.40
2022-12-01T00:46:07.714Z,31.42
2022-12-01T00:48:34.739Z,33.08
2022-12-01T00:51:01.657Z,33.97
2022-12-01T00:53:28.671Z,34.70
2022-12-01T00:55:55.602Z,34.30
2022-12-01T00:58:23.005Z,37.08
2022-12-01T01:00:50.273Z,38.15
2022-12-01T01:03:17.311Z,35.63
2022-12-01T01:05:44.449Z,33.90
2022-12-01T01:08:14.115Z,36.58
2022-12-01T01:10:43.118Z,37.10
2022-12-01T01:13:10.800Z,33.33
2022-12-01T01:15:38.168Z,38.50
2022-12-01T01:18:06.023Z,40.35
2022-12-01T01:20:33.482Z,34.90
2022-12-01T01:23:00.470Z,35.88
2022-12-01T01:25:27.470Z,33.20
2022-12-01T01:27:54.585Z,35.92
2022-12-01T01:30:21.967Z,34.00
2022-12-01T01:32:49.011Z,34.83
2022-12-01T01:35:15.959Z,36.63
2022-12-01T01:37:42.782Z,34.67
2022-12-01T01:40:10.492Z,35.78
2022-12-01T01:42:37.453Z,31.70
2022-12-01T01:45:04.722Z,31.58
2022-12-01T01:47:40.991Z,34.30
2022-12-01T01:50:11.764Z,35.13
2022-12-01T01:55:10.843Z,32.72
2022-12-01T01:57:38.424Z,30.38
2022-12-01T02:00:09.474Z,32.03
2022-12-01T02:02:40.959Z,31.55
2022-12-01T02:05:12.423Z,30.83
2022-12-01T02:07:41.530Z,31.65
2022-12-01T02:10:10.215Z,30.65
2022-12-01T02:12:45.064Z,31.38
2022-12-01T02:15:49.448Z,31.92
2022-12-01T02:18:21.191Z,29.65
2022-12-01T02:20:57.242Z,30.42
2022-12-01T02:23:48.570Z,28.63
2022-12-01T02:26:40.081Z,32.22
2022-12-01T02:29:42.529Z,31.33
2022-12-01T02:32:18.496Z,30.33
2022-12-01T02:34:51.273Z,28.88
2022-12-01T02:37:34.391Z,29.92
2022-12-01T02:40:07.721Z,31.67
2022-12-01T02:42:54.545Z,30.23
2022-12-01T02:45:33.709Z,35.80
2022-12-01T02:48:02.686Z,33.90
2022-12-01T02:50:32.015Z,33.10
2022-12-01T02:53:00.119Z,31.33
2022-12-01T02:55:27.208Z,33.55
2022-12-01T02:57:54.134Z,35.22
2022-12-01T03:00:21.186Z,30.75
2022-12-01T03:03:23.788Z,31.73
2022-12-01T03:06:13.035Z,29.50
2022-12-01T03:08:51.040Z,32.28
2022-12-01T03:11:28.375Z,34.67
2022-12-01T03:14:27.726Z,31.35
2022-12-01T03:16:55.034Z,32.80
2022-12-01T03:19:31.085Z,30.92
2022-12-01T03:22:04.385Z,31.23
2022-12-01T03:24:33.354Z,30.08
2022-12-01T03:27:01.837Z,30.60
2022-12-01T03:29:41.763Z,34.20
2022-12-01T03:32:20.761Z,32.33
2022-12-01T03:34:59.862Z,29.45
2022-12-01T03:37:47.991Z,31.40
2022-12-01T03:40:18.555Z,29.95
2022-12-01T03:42:50.559Z,30.95
2022-12-01T03:45:27.875Z,33.15
2022-12-01T03:47:55.025Z,31.77
2022-12-01T03:50:22.797Z,32.70
2022-12-01T03:52:52.558Z,30.98
2022-12-01T03:55:26.249Z,32.55
2022-12-01T03:58:09.650Z,31.73
2022-12-01T04:00:36.847Z,33.33
2022-12-01T04:03:04.692Z,32.80
2022-12-01T04:05:33.833Z,32.80
2022-12-01T04:08:01.417Z,35.08
2022-12-01T04:10:28.418Z,37.15
2022-12-01T04:12:59.682Z,34.72
2022-12-01T04:15:27.936Z,38.63
2022-12-01T04:17:55.230Z,38.05
2022-12-01T04:20:22.851Z,38.80
2022-12-01T04:22:49.835Z,39.38
2022-12-01T04:25:16.856Z,39.45
2022-12-01T04:27:43.703Z,39.90
2022-12-01T04:30:11.438Z,40.97
2022-12-01T04:32:42.914Z,40.03
2022-12-01T04:35:11.670Z,39.58
2022-12-01T04:37:39.600Z,38.10
2022-12-01T04:40:07.643Z,40.53
2022-12-01T04:42:34.774Z,37.88
2022-12-01T04:45:01.744Z,39.00
2022-12-01T04:47:28.701Z,36.17
2022-12-01T04:49:55.676Z,39.42
2022-12-01T04:52:22.609Z,36.45
2022-12-01T04:54:49.528Z,34.05
2022-12-01T04:57:16.507Z,32.05
2022-12-01T04:59:43.540Z,37.50
2022-12-01T05:02:10.534Z,35.40
2022-12-01T05:04:40.605Z,31.27
2022-12-01T05:07:07.549Z,33.17
2022-12-01T05:09:34.486Z,33.90
2022-12-01T05:12:01.431Z,32.67
2022-12-01T05:14:28.358Z,33.60
2022-12-01T05:16:56.326Z,30.88
2022-12-01T05:19:41.637Z,33.15
2022-12-01T05:22:08.604Z,29.95
2022-12-01T05:24:35.496Z,32.45
2022-12-01T05:27:02.448Z,29.73
2022-12-01T05:29:29.373Z,33.15
2022-12-01T05:31:56.341Z,34.75
2022-12-01T05:34:23.379Z,31.20
2022-12-01T05:36:50.387Z,32.35
2022-12-01T05:39:17.358Z,36.58
2022-12-01T05:41:44.440Z,30.48
2022-12-01T05:44:11.446Z,35.55
2022-12-01T05:46:38.428Z,35.60
2022-12-01T05:49:06.370Z,37.08
2022-12-01T05:51:33.281Z,39.08
2022-12-01T05:54:01.864Z,34.80
2022-12-01T05:56:28.815Z,34.08
2022-12-01T05:58:55.964Z,36.88
2022-12-01T06:01:22.933Z,36.97
2022-12-01T06:03:49.962Z,36.88
2022-12-01T06:06:17.121Z,37.20
2022-12-01T06:08:44.044Z,38.92
2022-12-01T06:11:11.075Z,34.63
2022-12-01T06:13:38.267Z,33.10
2022-12-01T06:16:06.501Z,40.53
2022-12-01T06:18:36.616Z,38.30
2022-12-01T06:21:06.095Z,34.95
2022-12-01T06:23:33.617Z,37.42
2022-12-01T06:26:00.566Z,35.00
2022-12-01T06:28:27.676Z,36.35
2022-12-01T06:30:59.277Z,41.05
2022-12-01T06:33:28.183Z,36.58
2022-12-01T06:35:59.680Z,33.53
2022-12-01T06:38:26.896Z,37.13
2022-12-01T06:40:53.880Z,32.63
2022-12-01T06:43:20.822Z,35.92
2022-12-01T06:45:47.741Z,30.95
2022-12-01T06:48:15.121Z,37.17
2022-12-01T06:50:42.063Z,36.30
2022-12-01T06:53:09.715Z,35.40
2022-12-01T06:55:37.213Z,33.65
2022-12-01T06:58:04.919Z,33.30
2022-12-01T07:00:32.671Z,31.08
2022-12-01T07:02:59.658Z,45.53
2022-12-01T07:05:26.711Z,34.53
2022-12-01T07:07:59.127Z,34.03
2022-12-01T07:10:26.539Z,38.50
2022-12-01T07:12:53.544Z,33.63
2022-12-01T07:15:20.535Z,37.83
2022-12-01T07:17:47.505Z,35.58
2022-12-01T07:20:14.610Z,36.72
2022-12-01T07:22:43.338Z,36.33
2022-12-01T07:25:10.303Z,34.15
2022-12-01T07:27:37.253Z,36.88
2022-12-01T07:30:04.702Z,39.67
2022-12-01T07:32:34.746Z,38.60
2022-12-01T07:35:01.719Z,38.65
2022-12-01T07:37:28.678Z,36.80
2022-12-01T07:39:55.618Z,36.55
2022-12-01T07:42:22.572Z,38.33
2022-12-01T07:44:49.528Z,34.10
2022-12-01T07:47:17.180Z,38.10
2022-12-01T07:49:44.325Z,39.22
2022-12-01T07:52:11.175Z,36.85
2022-12-01T07:54:38.107Z,39.03
2022-12-01T07:57:05.074Z,41.38
2022-12-01T07:59:32.035Z,37.08
2022-12-01T08:01:59.135Z,40.55
2022-12-01T08:04:26.095Z,38.92
2022-12-01T08:06:54.349Z,38.47
2022-12-01T08:09:21.317Z,38.80
2022-12-01T08:11:48.257Z,37.80
2022-12-01T08:14:15.460Z,41.47
2022-12-01T08:16:42.454Z,40.95
2022-12-01T08:19:12.694Z,38.58
2022-12-01T08:21:39.610Z,38.45
2022-12-01T08:24:06.985Z,42.35
2022-12-01T08:26:33.946Z,42.47
2022-12-01T08:29:01.366Z,42.83
2022-12-01T08:31:31.400Z,42.10
2022-12-01T08:33:58.904Z,49.20
2022-12-01T08:36:26.542Z,51.63
2022-12-01T08:38:54.745Z,51.47
2022-12-01T08:41:22.140Z,49.42
2022-12-01T08:43:58.061Z,53.28
2022-12-01T08:46:29.555Z,52.17
2022-12-01T08:48:58.199Z,47.20
2022-12-01T08:51:25.739Z,48.75
2022-12-01T08:53:52.849Z,44.35
2022-12-01T08:56:22.617Z,44.13
2022-12-01T08:58:50.707Z,86.97
2022-12-01T09:01:18.509Z,139.60
2022-12-01T09:03:45.651Z,65.85
2022-12-01T09:06:14.060Z,47.70
2022-12-01T09:08:41.546Z,48.53
2022-12-01T09:11:12.235Z,49.22
2022-12-01T09:13:40.010Z,64.40
2022-12-01T09:16:12.605Z,40.38
2022-12-01T09:18:40.037Z,43.85
2022-12-01T09:21:24.330Z,43.05
2022-12-01T09:23:51.937Z,47.25
2022-12-01T09:26:20.208Z,42.67
2022-12-01T09:28:48.597Z,46.08
2022-12-01T09:31:16.683Z,42.95
2022-12-01T09:33:43.628Z,46.60
2022-12-01T09:36:11.266Z,47.45
2022-12-01T09:38:39.370Z,50.88
2022-12-01T09:41:11.900Z,53.33
2022-12-01T09:44:14.360Z,55.55
2022-12-01T09:46:46.586Z,54.38
2022-12-01T09:49:19.613Z,58.53
2022-12-01T09:51:46.749Z,57.00
2022-12-01T09:54:15.125Z,56.45
2022-12-01T09:56:47.392Z,55.33
2022-12-01T09:59:18.645Z,54.67
2022-12-01T10:01:48.703Z,51.15
2022-12-01T10:04:35.226Z,53.10
2022-12-01T10:07:36.889Z,50.05
2022-12-01T10:10:12.866Z,51.28
2022-12-01T10:12:42.831Z,52.00
2022-12-01T10:15:15.382Z,57.22
2022-12-01T10:18:01.076Z,52.03
2022-12-01T10:20:49.456Z,52.70
2022-12-01T10:23:29.802Z,51.50
2022-12-01T10:26:26.939Z,62.63
2022-12-01T10:29:19.069Z,44.33
2022-12-01T10:31:56.120Z,48.70
2022-12-01T10:34:26.829Z,41.95
2022-12-01T10:36:54.489Z,46.70
2022-12-01T10:39:38.591Z,45.05
2022-12-01T10:42:15.489Z,42.40
2022-12-01T10:44:43.162Z,42.17
2022-12-01T10:47:22.158Z,45.28
2022-12-01T10:49:49.542Z,49.17
2022-12-01T10:52:35.638Z,49.40
2022-12-01T10:55:04.874Z,48.63
2022-12-01T10:57:32.513Z,44.63
2022-12-01T11:00:06.559Z,46.60
2022-12-01T11:02:33.910Z,45.35
2022-12-01T11:05:07.929Z,47.05
2022-12-01T11:07:42.836Z,49.67
2022-12-01T11:10:15.883Z,57.42
2022-12-01T11:12:44.273Z,54.97
2022-12-01T11:15:41.758Z,50.05
2022-12-01T11:18:20.934Z,56.35
2022-12-01T11:20:48.888Z,55.72
2022-12-01T11:23:19.083Z,66.45
2022-12-01T11:26:11.821Z,65.00
2022-12-01T11:28:44.022Z,67.97
2022-12-01T11:31:11.686Z,76.72
2022-12-01T11:33:45.186Z,76.80
2022-12-01T11:36:23.666Z,85.93
2022-12-01T11:38:52.970Z,78.00
2022-12-01T11:41:30.289Z,64.28
2022-12-01T11:44:01.852Z,59.15
2022-12-01T11:46:42.687Z,62.70
2022-12-01T11:49:22.587Z,74.85
2022-12-01T11:51:50.245Z,56.78
2022-12-01T11:54:26.046Z,79.78
2022-12-01T11:57:25.442Z,50.55
2022-12-01T11:59:41.038Z,51.75
2022-12-01T12:02:29.681Z,148.73
2022-12-01T12:05:07.113Z,52.25
2022-12-01T12:07:49.686Z,44.78
2022-12-01T12:10:25.556Z,43.30
2022-12-01T12:12:52.534Z,43.50
2022-12-01T12:15:25.485Z,43.97
2022-12-01T12:18:01.640Z,40.47
2022-12-01T12:20:55.535Z,41.17
2022-12-01T12:23:32.382Z,41.10
2022-12-01T12:26:18.181Z,44.28
2022-12-01T12:29:07.145Z,42.72
2022-12-01T12:31:52.874Z,46.63
2022-12-01T12:34:47.497Z,37.65
2022-12-01T12:37:35.689Z,41.45
2022-12-01T12:40:26.271Z,35.67
2022-12-01T12:43:30.806Z,40.10
2022-12-01T12:46:01.774Z,29.80
2022-12-01T12:49:11.654Z,29.35
2022-12-01T12:51:36.526Z,25.55
2022-12-01T12:54:42.601Z,27.65
2022-12-01T12:57:21.769Z,28.63
2022-12-01T12:59:59.677Z,24.42
2022-12-01T13:02:41.773Z,26.15
2022-12-01T13:05:46.081Z,27.33
2022-12-01T13:08:39.518Z,23.70
2022-12-01T13:11:29.654Z,25.80
2022-12-01T13:14:45.962Z,27.35
2022-12-01T13:17:21.165Z,27.38
2022-12-01T13:19:48.900Z,23.23
2022-12-01T13:22:18.672Z,20.65
2022-12-01T13:24:45.860Z,21.80
2022-12-01T13:27:19.370Z,22.85
2022-12-01T13:29:51.527Z,21.83
2022-12-01T13:32:44.671Z,25.58
2022-12-01T13:35:32.014Z,23.63
2022-12-01T13:38:18.250Z,24.17
2022-12-01T13:40:45.277Z,25.42
2022-12-01T13:43:25.305Z,32.75
2022-12-01T13:45:52.237Z,23.65
2022-12-01T13:48:49.639Z,27.67
2022-12-01T13:51:16.969Z,24.88
2022-12-01T13:53:57.806Z,29.35
2022-12-01T13:58:54.563Z,29.10
2022-12-01T14:01:21.932Z,34.05
2022-12-01T14:03:53.468Z,30.45
2022-12-01T14:06:31.063Z,30.55
2022-12-01T14:09:04.731Z,28.85
2022-12-01T14:11:33.093Z,30.38
2022-12-01T14:14:09.290Z,29.20
2022-12-01T14:16:58.783Z,29.65
2022-12-01T14:19:44.353Z,30.55
2022-12-01T14:22:36.109Z,28.23
2022-12-01T14:25:06.590Z,29.13
2022-12-01T14:27:44.719Z,27.13
2022-12-01T14:30:40.113Z,28.30
2022-12-01T14:33:45.162Z,28.90
2022-12-01T14:36:24.349Z,29.08
2022-12-01T14:39:01.854Z,31.23
2022-12-01T14:41:34.025Z,30.35
2022-12-01T14:44:11.081Z,28.85
2022-12-01T14:47:02.555Z,41.38
2022-12-01T14:49:37.711Z,38.78
2022-12-01T14:52:12.711Z,35.65
2022-12-01T14:54:44.431Z,43.58
2022-12-01T14:57:16.670Z,28.20
2022-12-01T14:59:45.241Z,33.85
2022-12-01T15:02:13.043Z,142.20
2022-12-01T15:05:17.995Z,121.07
2022-12-01T15:07:47.726Z,39.20
2022-12-01T15:10:22.552Z,58.95
2022-12-01T15:12:50.378Z,144.52
2022-12-01T15:15:23.640Z,71.70
2022-12-01T15:17:51.522Z,44.58
2022-12-01T15:20:47.814Z,70.47
2022-12-01T15:23:17.416Z,82.78
2022-12-01T15:25:46.313Z,89.38
2022-12-01T15:28:18.841Z,52.20
2022-12-01T15:30:51.289Z,71.80
2022-12-01T15:33:32.745Z,92.35
2022-12-01T15:36:02.928Z,74.63
2022-12-01T15:38:32.649Z,118.18
2022-12-01T15:43:56.617Z,39.50
2022-12-01T15:46:29.107Z,45.10
2022-12-01T15:49:09.552Z,61.38
2022-12-01T15:51:36.659Z,69.43
2022-12-01T15:54:04.053Z,114.63
2022-12-01T15:56:36.910Z,135.43
2022-12-01T15:59:25.239Z,68.32
2022-12-01T16:01:52.270Z,63.65
2022-12-01T16:04:19.292Z,98.65
2022-12-01T16:06:57.684Z,69.80
2022-12-01T16:09:40.928Z,59.08
2022-12-01T16:12:17.230Z,58.38
2022-12-01T16:15:15.356Z,49.13
2022-12-01T16:17:56.075Z,49.25
2022-12-01T16:22:59.276Z,62.70
2022-12-01T16:25:34.904Z,53.92
2022-12-01T16:28:02.751Z,55.35
2022-12-01T16:30:39.057Z,34.78
2022-12-01T16:33:15.644Z,42.40
2022-12-01T16:35:42.799Z,40.72
2022-12-01T16:38:23.772Z,45.35
2022-12-01T16:40:53.040Z,38.72
2022-12-01T16:43:22.704Z,36.65
2022-12-01T16:45:53.230Z,40.78
2022-12-01T16:48:20.746Z,41.15
2022-12-01T16:50:48.993Z,40.05
2022-12-01T16:53:16.420Z,46.58
2022-12-01T16:55:56.577Z,42.05
2022-12-01T16:58:23.586Z,44.42
2022-12-01T17:00:53.851Z,36.22
2022-12-01T17:03:23.014Z,37.53
2022-12-01T17:05:50.842Z,38.13
2022-12-01T17:08:18.251Z,37.95
2022-12-01T17:10:46.513Z,40.03
2022-12-01T17:13:13.717Z,42.33
2022-12-01T17:15:45.425Z,53.28
2022-12-01T17:18:13.053Z,40.78
2022-12-01T17:20:40.060Z,40.47
2022-12-01T17:23:07.534Z,37.85
2022-12-01T17:25:35.187Z,42.40
2022-12-01T17:28:02.156Z,55.22
2022-12-01T17:30:29.116Z,109.30
2022-12-01T17:32:56.034Z,33.22
2022-12-01T17:35:23.015Z,81.43
2022-12-01T17:37:49.988Z,70.50
2022-12-01T17:40:17.168Z,76.18
2022-12-01T17:42:49.996Z,44.95
2022-12-01T17:45:19.954Z,77.90
2022-12-01T17:47:46.931Z,47.22
2022-12-01T17:50:14.002Z,62.03
2022-12-01T17:52:41.209Z,39.50
2022-12-01T17:55:08.724Z,41.97
2022-12-01T17:57:35.738Z,46.42
2022-12-01T18:00:03.053Z,63.95
2022-12-01T18:02:29.881Z,40.40
2022-12-01T18:04:56.840Z,45.55
2022-12-01T18:07:23.878Z,78.60
2022-12-01T18:09:50.912Z,104.85
2022-12-01T18:12:18.241Z,77.40
2022-12-01T18:14:45.832Z,61.35
2022-12-01T18:17:12.784Z,60.90
2022-12-01T18:19:40.829Z,60.38
2022-12-01T18:22:08.395Z,79.38
2022-12-01T18:24:35.543Z,133.30
2022-12-01T18:27:03.527Z,45.63
2022-12-01T18:29:30.486Z,38.88
2022-12-01T18:31:59.082Z,40.05
2022-12-01T18:34:27.753Z,40.47
2022-12-01T18:36:54.701Z,37.17
2022-12-01T18:39:21.839Z,58.85
2022-12-01T18:41:49.544Z,75.78
2022-12-01T18:44:16.530Z,77.38
2022-12-01T18:46:43.797Z,57.90
2022-12-01T18:49:11.288Z,144.35
2022-12-01T18:51:39.379Z,137.55
2022-12-01T18:54:08.108Z,48.20
2022-12-01T18:56:35.209Z,41.78
2022-12-01T18:59:05.359Z,40.72
2022-12-01T19:01:36.081Z,47.55
2022-12-01T19:04:04.057Z,41.97
2022-12-01T19:06:31.258Z,56.95
2022-12-01T19:09:00.449Z,58.38
2022-12-01T19:11:28.158Z,45.85
2022-12-01T19:13:58.185Z,34.90
2022-12-01T19:16:25.519Z,33.40
2022-12-01T19:18:52.544Z,33.00
2022-12-01T19:21:20.402Z,35.60
2022-12-01T19:23:47.847Z,65.53
2022-12-01T19:26:17.982Z,71.30
2022-12-01T19:28:45.935Z,57.50
2022-12-01T19:31:19.935Z,57.50
2022-12-01T19:33:47.377Z,48.40
2022-12-01T19:36:20.629Z,58.70
2022-12-01T19:38:47.881Z,65.72
2022-12-01T19:41:15.536Z,85.38
2022-12-01T19:43:42.979Z,62.08
2022-12-01T19:46:13.103Z,55.20
2022-12-01T19:48:40.299Z,59.05
2022-12-01T19:51:07.684Z,48.13
2022-12-01T19:53:34.842Z,47.17
2022-12-01T19:56:05.571Z,98.30
2022-12-01T20:01:09.309Z,39.95
2022-12-01T20:03:37.018Z,40.88
2022-12-01T20:06:10.320Z,38.80
2022-12-01T20:08:37.420Z,54.45
2022-12-01T20:11:05.292Z,43.05
2022-12-01T20:13:33.343Z,39.08
2022-12-01T20:16:10.581Z,43.67
2022-12-01T20:18:38.322Z,52.92
2022-12-01T20:21:17.837Z,32.60
2022-12-01T20:23:50.451Z,34.85
2022-12-01T20:26:18.944Z,32.00
2022-12-01T20:28:48.503Z,34.65
2022-12-01T20:31:20.509Z,36.53
2022-12-01T20:33:49.293Z,33.33
2022-12-01T20:36:18.074Z,30.83
2022-12-01T20:38:45.136Z,32.35
2022-12-01T20:41:12.690Z,29.15
2022-12-01T20:43:40.060Z,31.30
2022-12-01T20:46:07.279Z,34.53
2022-12-01T20:48:35.030Z,35.72
2022-12-01T20:51:03.407Z,31.92
2022-12-01T20:53:30.866Z,36.83
2022-12-01T20:55:58.039Z,29.92
2022-12-01T20:58:25.014Z,57.45
2022-12-01T21:00:52.062Z,50.40
2022-12-01T21:03:19.153Z,32.10
2022-12-01T21:05:46.081Z,31.95
2022-12-01T21:08:13.898Z,34.72
2022-12-01T21:10:45.704Z,40.38
2022-12-01T21:13:42.553Z,44.47
2022-12-01T21:16:30.071Z,40.35
2022-12-01T21:19:01.314Z,37.72
2022-12-01T21:21:30.766Z,36.22
2022-12-01T21:24:19.082Z,32.67
2022-12-01T21:26:53.248Z,31.23
2022-12-01T21:29:44.905Z,32.00
2022-12-01T21:32:31.728Z,36.05
2022-12-01T21:35:05.697Z,30.85
2022-12-01T21:37:32.597Z,32.42
2022-12-01T21:40:00.109Z,34.28
2022-12-01T21:42:28.601Z,35.85
2022-12-01T21:44:56.749Z,39.08
2022-12-01T21:47:26.530Z,51.75
2022-12-01T21:49:59.994Z,53.33
2022-12-01T21:52:34.121Z,39.78
2022-12-01T21:55:23.984Z,36.97
2022-12-01T21:57:52.687Z,32.90
2022-12-01T22:00:32.947Z,29.67
2022-12-01T22:03:05.575Z,29.92
2022-12-01T22:06:21.357Z,38.47
2022-12-01T22:08:41.453Z,32.85
2022-12-01T22:11:25.784Z,35.38
2022-12-01T22:14:05.001Z,34.15
2022-12-01T22:16:34.061Z,28.85
2022-12-01T22:19:18.726Z,32.35
2022-12-01T22:21:47.243Z,29.17
2022-12-01T22:24:23.301Z,28.30
2022-12-01T22:26:54.330Z,27.55
2022-12-01T22:29:33.725Z,30.92
2022-12-01T22:32:12.792Z,31.63
2022-12-01T22:34:49.900Z,33.25
2022-12-01T22:37:25.156Z,28.85
2022-12-01T22:39:55.476Z,28.52
2022-12-01T22:42:29.137Z,30.10
2022-12-01T22:44:59.333Z,26.70
2022-12-01T22:47:28.063Z,28.80
2022-12-01T22:49:55.751Z,29.77
2022-12-01T22:52:29.137Z,28.98
2022-12-01T22:54:56.147Z,29.33
2022-12-01T22:57:33.528Z,29.30
2022-12-01T23:00:26.334Z,31.08
2022-12-01T23:02:56.459Z,29.42
2022-12-01T23:05:25.956Z,29.90
2022-12-01T23:07:54.349Z,29.98
2022-12-01T23:10:26.780Z,33.15
2022-12-01T23:12:56.083Z,33.67
2022-12-01T23:15:39.314Z,31.17
2022-12-01T23:18:15.814Z,30.35
2022-12-01T23:20:52.689Z,30.65
2022-12-01T23:23:38.126Z,32.53
2022-12-01T23:26:07.928Z,33.38
2022-12-01T23:28:39.938Z,31.35
2022-12-01T23:31:06.903Z,30.85
2022-12-01T23:33:35.156Z,32.15
2022-12-01T23:36:08.066Z,28.20
2022-12-01T23:38:40.458Z,31.15
2022-12-01T23:41:11.159Z,31.05
2022-12-01T23:46:10.156Z,31.80
2022-12-01T23:48:43.694Z,32.42
2022-12-01T23:51:19.078Z,33.55
2022-12-01T23:53:47.208Z,34.15
2022-12-01T23:56:17.472Z,35.55
2022-12-01T23:58:45.009Z,37.88
